Main page
METAR-TAF:

METAR-TAF

Airports :

Morón Air Base

Morón de la Frontera, Spain

latitude: 37-09N, longitude: 005-37W, elevation: 87 m

Current weather observation

The report was made 22 minutes ago, at 19:00 UTC
Wind 9 kt from the West, varying between Southwest and West/Northwest
Temperature 26°C
Humidity 61%
Pressure 1015 hPa
Visibility 10 km or more
no clouds below 1500 m and no cumulonimbus

METAR: LEMO 181900Z 27009KT 230V290 CAVOK 26/18 Q1015 NOSIG

Time: 21:22 (19:22 UTC)

Forecast

The report was made 2 hours and 22 minutes ago, at 17:00 UTC
Forecast valid from 18 at 18 UTC to 19 at 03 UTC
Wind 13 kt from the West
Visibility 10 km or more
no clouds below 1500 m and no cumulonimbus
Probability 40% :
Temporary
from 18 at 18 UTC to 18 at 19 UTC
Wind 15 kt from the West with gusts up to 25 kt
Becoming
from 18 at 21 UTC to 18 at 24 UTC
Wind 5 kt from the North

TAF: LEMO 181700Z 1818/1903 26013KT CAVOK PROB40 TEMPO 1818/1819 26015G25KT BECMG 1821/1824 35005KT

Weather observations and forecasts of more than 4000 airports (METAR and TAF reports).

The available stations are represented by yellow and red dots on the map.

Hover mouse over dot to see the name of the station.

Then click to see weather observations and forecasts.

To change the map : click on the green buttons with a black cross to zoom in, on the green button with a dash to zoom out, or on the green arrows for adjacent maps.


METAR-TAF: